Westfield, Illinois
Current Conditions -  °F | °C
As of 3:53 PM on Tuesday 21 Oct 2014 (Local Time) from KMTO Reporting Station
Clear Clear  
Wind Chill: 59°   Ceiling: Unl
Heat Index: 59°   Visibility: 10mi
Dew Point: 38°   Wind: 8mph
Humidity: 46%   Direction: 20°NNE
Pressure: 30.12"   Gusts: 20mph
Location:  39.46°N, 88°W
Report Text: KMTO 212053Z AUTO 02007G17KT 10SM CLR 15/03 A3012 RMK AO2 SLP202 T01500033 55000
Loading
Personal Weather Stations






























Interactive Weather Map
Tropical Storm Tracking
New forecast layout! Learn more

10-Day Weather Forecast

Advertisements
Track Severe Weather on mobile